Terminal Aerodrome Forecast
Issued by NWS Brownsville, TX

Home | Current Version | Previous Version | Text Only | Print | Product List | Glossary On
Versions: 1 2 3 4 5 6 7 8 9 10 11 12 13 14 15 16 17 18 19 20 21 22 23 24 25
685
FTUS44 KBRO 210536
TAFBRO
TAF
KBRO 210536Z 2106/2206 15010KT P6SM SCT008 BKN015
     FM211600 17018G28KT P6SM BKN015
     FM220000 15011KT 6SM BR OVC007=

USA.gov is the U.S. government's official web portal to all federal, state and local government web resources and services.